Time;durP1;ratioP1;P1;durP2;ratioP2;P2;SDS_P1;SDS_P2;PMS_P1;PMS_P2;Temp;Humidity;BMP_temperature;BMP_pressure;BME280_temperature;BME280_humidity;BME280_pressure;Samples;Min_cycle;Max_cycle;Signal;HPM_P1;HPM_P2
2023/03/23 00:01:49;;;;;;;28.13;12.07;;;;;;;;;;4995932;28;20482;-70
2023/03/23 00:04:15;;;;;;;20.02;9.18;;;;;;;;;;4994687;28;20045;-71
2023/03/23 00:06:40;;;;;;;17.45;8.27;;;;;;;;;;4973098;28;20048;-70
2023/03/23 00:09:05;;;;;;;22.58;11.65;;;;;;;;;;4996370;28;20510;-70
2023/03/23 00:11:31;;;;;;;18.02;9.27;;;;;;;;;;4997324;28;20041;-71
2023/03/23 00:13:57;;;;;;;17.98;8.63;;;;;;;;;;4995988;28;20045;-69
2023/03/23 00:16:31;;;;;;;17.23;7.85;;;;;;;;;;4972127;28;20037;-69
2023/03/23 00:19:04;;;;;;;22.27;8.55;;;;;;;;;;4990257;28;20471;-69
2023/03/23 00:21:34;;;;;;;20.63;8.85;;;;;;;;;;4995820;28;20039;-69
2023/03/23 00:24:09;;;;;;;12.98;7.40;;;;;;;;;;4995974;28;20074;-68
2023/03/23 00:26:39;;;;;;;18.73;8.48;;;;;;;;;;4997131;28;20073;-69
2023/03/23 00:29:06;;;;;;;15.82;7.22;;;;;;;;;;4996153;28;20046;-70
2023/03/23 00:31:34;;;;;;;17.25;7.80;;;;;;;;;;4996476;28;20156;-69
2023/03/23 00:34:01;;;;;;;15.70;7.30;;;;;;;;;;4988056;28;20052;-70
2023/03/23 00:36:29;;;;;;;15.07;7.22;;;;;;;;;;4994934;28;20053;-68
2023/03/23 00:38:57;;;;;;;15.13;6.85;;;;;;;;;;4971310;28;20034;-68
2023/03/23 00:41:26;;;;;;;11.38;5.68;;;;;;;;;;4994752;28;20037;-70
2023/03/23 00:43:54;;;;;;;20.88;8.63;;;;;;;;;;4995543;28;20546;-69
2023/03/23 00:46:20;;;;;;;18.42;7.63;;;;;;;;;;4996432;28;20165;-68
2023/03/23 00:48:46;;;;;;;19.23;8.30;;;;;;;;;;4995721;28;20057;-69
2023/03/23 00:51:11;;;;;;;23.90;7.43;;;;;;;;;;4980058;28;20041;-69
2023/03/23 00:53:38;;;;;;;19.10;6.97;;;;;;;;;;4995290;28;20489;-69
2023/03/23 00:56:03;;;;;;;17.13;6.40;;;;;;;;;;4996685;28;20041;-68
2023/03/23 00:58:29;;;;;;;17.33;6.55;;;;;;;;;;4996002;28;20049;-69
2023/03/23 01:00:56;;;;;;;17.27;6.30;;;;;;;;;;4968532;28;20037;-69
2023/03/23 01:03:25;;;;;;;15.27;6.55;;;;;;;;;;4999488;28;20029;-71
2023/03/23 01:05:51;;;;;;;17.77;6.82;;;;;;;;;;4998263;28;20045;-68
2023/03/23 01:08:19;;;;;;;16.90;6.68;;;;;;;;;;4999142;28;20049;-68
2023/03/23 01:10:45;;;;;;;15.73;6.20;;;;;;;;;;4975392;28;20565;-68
2023/03/23 01:13:11;;;;;;;14.88;5.55;;;;;;;;;;4999612;28;20117;-68
2023/03/23 01:15:36;;;;;;;15.23;5.93;;;;;;;;;;4997635;28;20055;-69
2023/03/23 01:18:02;;;;;;;18.30;6.60;;;;;;;;;;5000019;28;20473;-68
2023/03/23 01:20:28;;;;;;;12.43;4.22;;;;;;;;;;4990585;28;20073;-68
2023/03/23 01:22:59;;;;;;;12.18;4.75;;;;;;;;;;4999815;28;20051;-70
2023/03/23 01:25:25;;;;;;;15.70;5.35;;;;;;;;;;4999972;28;20164;-69
2023/03/23 01:27:50;;;;;;;18.38;6.18;;;;;;;;;;4999581;28;20045;-67
2023/03/23 01:30:16;;;;;;;17.25;5.93;;;;;;;;;;5000185;28;20050;-68
2023/03/23 01:32:41;;;;;;;16.20;6.35;;;;;;;;;;5000389;28;20067;-69
2023/03/23 01:35:06;;;;;;;13.60;6.18;;;;;;;;;;4999675;28;20049;-69
2023/03/23 01:37:32;;;;;;;14.38;5.53;;;;;;;;;;4984640;28;20048;-69
2023/03/23 01:39:57;;;;;;;10.75;5.22;;;;;;;;;;4999807;28;20060;-68
2023/03/23 01:42:30;;;;;;;15.48;6.30;;;;;;;;;;4999097;28;20053;-69
2023/03/23 01:44:55;;;;;;;12.75;4.55;;;;;;;;;;4991905;28;20785;-68
2023/03/23 01:47:23;;;;;;;10.38;3.75;;;;;;;;;;4999257;28;20038;-68
2023/03/23 01:49:49;;;;;;;12.90;3.72;;;;;;;;;;4984652;28;20169;-69
2023/03/23 01:52:17;;;;;;;15.50;5.13;;;;;;;;;;4998448;28;20041;-69
2023/03/23 01:54:44;;;;;;;18.08;6.00;;;;;;;;;;4999403;28;20129;-68
2023/03/23 01:57:13;;;;;;;14.55;5.57;;;;;;;;;;4981929;28;20410;-69
2023/03/23 01:59:38;;;;;;;13.88;5.63;;;;;;;;;;4998183;28;20049;-67
2023/03/23 02:02:04;;;;;;;15.85;6.03;;;;;;;;;;4999396;28;20065;-69
2023/03/23 02:04:30;;;;;;;18.77;6.25;;;;;;;;;;5012764;28;20152;-69
2023/03/23 02:06:57;;;;;;;11.15;3.72;;;;;;;;;;4990920;28;20057;-70
2023/03/23 02:09:25;;;;;;;10.65;3.10;;;;;;;;;;4997370;28;20050;-69
2023/03/23 02:11:50;;;;;;;13.80;3.45;;;;;;;;;;4997431;28;20052;-69
2023/03/23 02:14:16;;;;;;;13.95;3.35;;;;;;;;;;4980282;28;20046;-70
2023/03/23 02:16:58;;;;;;;12.68;3.30;;;;;;;;;;4998732;28;20048;-70
2023/03/23 02:19:40;;;;;;;13.20;3.70;;;;;;;;;;4995599;28;20049;-70
2023/03/23 02:22:12;;;;;;;17.17;4.30;;;;;;;;;;4998255;28;21055;-70
2023/03/23 02:24:37;;;;;;;14.63;4.25;;;;;;;;;;4997961;28;20068;-70
2023/03/23 02:27:08;;;;;;;17.88;4.20;;;;;;;;;;4998660;28;20479;-69
2023/03/23 02:29:48;;;;;;;37.83;6.35;;;;;;;;;;4997561;28;20045;-69
2023/03/23 02:32:29;;;;;;;27.45;6.43;;;;;;;;;;4996909;28;20656;-72
2023/03/23 02:35:00;;;;;;;44.55;6.75;;;;;;;;;;4995762;28;20038;-72
2023/03/23 02:37:32;;;;;;;30.63;6.25;;;;;;;;;;4982863;28;20077;-70
2023/03/23 02:40:08;;;;;;;44.80;8.32;;;;;;;;;;4997027;28;20099;-71
2023/03/23 02:42:36;;;;;;;29.10;8.23;;;;;;;;;;4990044;28;20451;-71
2023/03/23 02:45:03;;;;;;;33.03;7.88;;;;;;;;;;4973521;28;20068;-72
2023/03/23 02:47:29;;;;;;;27.75;7.03;;;;;;;;;;4997979;28;20041;-72
2023/03/23 02:49:56;;;;;;;39.75;8.07;;;;;;;;;;4997835;28;20041;-71
2023/03/23 02:52:23;;;;;;;27.88;6.75;;;;;;;;;;4998078;28;20045;-70
2023/03/23 02:54:49;;;;;;;24.55;5.47;;;;;;;;;;4998544;28;20132;-69
2023/03/23 02:57:14;;;;;;;20.63;5.10;;;;;;;;;;4998052;28;20040;-71
2023/03/23 02:59:40;;;;;;;17.63;4.90;;;;;;;;;;5012713;28;20686;-70
2023/03/23 03:02:05;;;;;;;22.80;4.28;;;;;;;;;;4990681;28;20073;-71
2023/03/23 03:04:33;;;;;;;28.52;4.80;;;;;;;;;;4998001;28;20510;-70
2023/03/23 03:07:15;;;;;;;14.80;4.57;;;;;;;;;;4997703;28;20509;-70
2023/03/23 03:09:40;;;;;;;18.45;4.80;;;;;;;;;;4998040;28;20056;-71
2023/03/23 03:12:08;;;;;;;20.17;4.47;;;;;;;;;;4997409;28;20030;-70
2023/03/23 03:14:38;;;;;;;19.33;5.15;;;;;;;;;;4997676;28;20033;-70
2023/03/23 03:17:06;;;;;;;17.13;4.45;;;;;;;;;;4968293;28;20034;-69
2023/03/23 03:19:51;;;;;;;26.85;5.85;;;;;;;;;;4997877;28;20127;-71
2023/03/23 03:22:20;;;;;;;26.35;5.93;;;;;;;;;;4996538;28;20038;-70
2023/03/23 03:24:46;;;;;;;29.45;5.50;;;;;;;;;;4989753;28;20034;-69
2023/03/23 03:27:14;;;;;;;24.70;5.30;;;;;;;;;;4974092;28;20524;-70
2023/03/23 03:29:43;;;;;;;25.65;5.30;;;;;;;;;;4997378;28;20069;-70
2023/03/23 03:32:11;;;;;;;26.23;5.57;;;;;;;;;;4996357;28;20729;-68
2023/03/23 03:34:36;;;;;;;40.00;5.60;;;;;;;;;;4973206;28;20041;-70
2023/03/23 03:37:04;;;;;;;32.42;5.65;;;;;;;;;;4997216;28;20029;-70
2023/03/23 03:39:29;;;;;;;29.70;5.90;;;;;;;;;;4988879;28;20394;-69
2023/03/23 03:41:55;;;;;;;36.25;6.38;;;;;;;;;;4997556;28;20041;-70
2023/03/23 03:44:20;;;;;;;37.40;6.43;;;;;;;;;;4981368;28;20116;-70
2023/03/23 03:46:46;;;;;;;34.78;5.63;;;;;;;;;;4996958;28;20052;-70
2023/03/23 03:49:15;;;;;;;44.00;7.03;;;;;;;;;;4973558;28;20045;-69
2023/03/23 03:51:40;;;;;;;36.35;6.18;;;;;;;;;;4997321;28;20033;-71
2023/03/23 03:54:06;;;;;;;38.75;5.85;;;;;;;;;;4972728;28;20645;-70
2023/03/23 03:56:35;;;;;;;36.20;5.43;;;;;;;;;;4997136;28;20116;-69
2023/03/23 03:59:01;;;;;;;49.00;6.88;;;;;;;;;;4971975;28;20193;-69
2023/03/23 04:01:28;;;;;;;36.33;5.80;;;;;;;;;;4996849;28;20092;-70
2023/03/23 04:03:53;;;;;;;31.67;6.20;;;;;;;;;;4995383;28;20091;-68
2023/03/23 04:06:21;;;;;;;40.70;6.03;;;;;;;;;;4988307;28;20041;-70
2023/03/23 04:08:46;;;;;;;43.95;5.95;;;;;;;;;;4995017;28;20038;-68
2023/03/23 04:11:13;;;;;;;41.53;7.22;;;;;;;;;;4998202;28;20041;-69
2023/03/23 04:13:39;;;;;;;38.92;6.35;;;;;;;;;;4997013;28;20041;-67
2023/03/23 04:16:04;;;;;;;34.63;5.50;;;;;;;;;;4983188;28;21073;-70
2023/03/23 04:18:31;;;;;;;39.38;5.70;;;;;;;;;;4994941;28;20048;-70
2023/03/23 04:20:59;;;;;;;43.20;7.32;;;;;;;;;;4996349;28;20119;-69
2023/03/23 04:23:27;;;;;;;35.92;6.35;;;;;;;;;;4997421;28;20038;-69
2023/03/23 04:25:57;;;;;;;35.50;7.63;;;;;;;;;;4997052;28;20034;-69
2023/03/23 04:28:23;;;;;;;39.55;6.88;;;;;;;;;;4994351;28;20095;-68
2023/03/23 04:30:52;;;;;;;40.65;6.60;;;;;;;;;;4995989;28;20136;-70
2023/03/23 04:33:18;;;;;;;38.08;7.20;;;;;;;;;;4995548;28;20084;-70
2023/03/23 04:35:45;;;;;;;44.33;7.22;;;;;;;;;;4999931;28;20045;-69
2023/03/23 04:38:10;;;;;;;40.58;7.38;;;;;;;;;;5001800;28;20037;-69
2023/03/23 04:40:39;;;;;;;50.08;8.63;;;;;;;;;;5003640;28;20103;-68
2023/03/23 04:43:05;;;;;;;45.03;6.88;;;;;;;;;;5003945;28;20196;-69
2023/03/23 04:45:30;;;;;;;44.05;7.53;;;;;;;;;;5002883;28;20175;-69
2023/03/23 04:47:58;;;;;;;39.15;5.70;;;;;;;;;;5002911;28;20052;-69
2023/03/23 04:50:26;;;;;;;41.78;6.88;;;;;;;;;;4977733;28;20103;-69
2023/03/23 04:52:53;;;;;;;34.60;6.82;;;;;;;;;;5003980;28;20041;-69
2023/03/23 04:55:22;;;;;;;49.63;7.68;;;;;;;;;;5002911;28;20045;-69
2023/03/23 04:57:47;;;;;;;42.50;6.65;;;;;;;;;;5002933;28;20038;-69
2023/03/23 05:00:16;;;;;;;56.42;7.65;;;;;;;;;;5001004;28;20048;-69
2023/03/23 05:02:46;;;;;;;42.08;6.65;;;;;;;;;;5002873;28;20041;-69
2023/03/23 05:05:12;;;;;;;45.45;6.80;;;;;;;;;;5002399;28;20034;-70
2023/03/23 05:07:38;;;;;;;52.20;8.30;;;;;;;;;;5001416;28;20046;-69
2023/03/23 05:10:04;;;;;;;47.17;7.53;;;;;;;;;;5003102;28;20092;-68
2023/03/23 05:12:29;;;;;;;49.60;8.80;;;;;;;;;;5001133;28;20147;-69
2023/03/23 05:14:55;;;;;;;54.13;9.00;;;;;;;;;;5002236;28;20056;-69
2023/03/23 05:17:20;;;;;;;55.20;8.98;;;;;;;;;;4979828;28;20135;-70
2023/03/23 05:19:47;;;;;;;50.33;7.65;;;;;;;;;;5001835;28;20113;-69
2023/03/23 05:22:15;;;;;;;54.13;7.70;;;;;;;;;;5002062;28;20710;-70
2023/03/23 05:24:42;;;;;;;59.15;8.35;;;;;;;;;;4972456;28;20502;-69
2023/03/23 05:27:07;;;;;;;55.65;9.07;;;;;;;;;;5002682;28;20042;-68
2023/03/23 05:29:35;;;;;;;59.17;8.32;;;;;;;;;;5002561;28;20059;-70
2023/03/23 05:32:02;;;;;;;60.38;9.27;;;;;;;;;;4999928;28;20124;-69
2023/03/23 05:34:28;;;;;;;53.33;8.48;;;;;;;;;;5002483;28;20044;-68
2023/03/23 05:36:55;;;;;;;62.40;9.40;;;;;;;;;;5002670;28;20038;-68
2023/03/23 05:39:21;;;;;;;54.28;9.07;;;;;;;;;;4986720;28;20121;-69
2023/03/23 05:41:46;;;;;;;70.35;9.88;;;;;;;;;;5001937;28;20241;-69
2023/03/23 05:44:14;;;;;;;52.17;8.25;;;;;;;;;;4987099;28;20033;-69
2023/03/23 05:46:40;;;;;;;54.28;9.55;;;;;;;;;;5001328;28;20041;-69
2023/03/23 05:49:05;;;;;;;54.75;9.23;;;;;;;;;;4986129;28;20052;-69
2023/03/23 05:51:31;;;;;;;50.65;8.07;;;;;;;;;;4998629;28;20048;-68
2023/03/23 05:53:56;;;;;;;56.42;8.50;;;;;;;;;;4991995;28;20045;-69
2023/03/23 05:56:22;;;;;;;60.28;7.85;;;;;;;;;;4998029;28;20038;-68
2023/03/23 05:58:47;;;;;;;54.85;8.68;;;;;;;;;;4991329;28;20048;-69
2023/03/23 06:01:13;;;;;;;48.97;7.63;;;;;;;;;;4998821;28;20414;-69
2023/03/23 06:03:39;;;;;;;59.08;9.60;;;;;;;;;;4998704;28;20073;-68
2023/03/23 06:06:04;;;;;;;57.65;9.32;;;;;;;;;;4990475;28;21536;-68
2023/03/23 06:08:30;;;;;;;62.53;10.60;;;;;;;;;;4975060;28;20148;-69
2023/03/23 06:10:56;;;;;;;64.13;8.68;;;;;;;;;;4998799;28;20052;-70
2023/03/23 06:13:21;;;;;;;85.88;11.02;;;;;;;;;;4994329;28;20046;-69
2023/03/23 06:15:47;;;;;;;65.97;10.23;;;;;;;;;;4995853;28;20128;-71
2023/03/23 06:18:12;;;;;;;57.03;9.45;;;;;;;;;;4981109;28;20044;-69
2023/03/23 06:20:38;;;;;;;64.97;9.95;;;;;;;;;;4986033;28;20530;-68
2023/03/23 06:23:04;;;;;;;66.32;10.60;;;;;;;;;;4999904;28;20041;-69
2023/03/23 06:25:29;;;;;;;87.05;12.13;;;;;;;;;;4999533;28;20084;-70
2023/03/23 06:27:55;;;;;;;69.32;10.40;;;;;;;;;;4998000;28;20099;-70
2023/03/23 06:30:20;;;;;;;79.68;11.80;;;;;;;;;;4996714;28;20049;-69
2023/03/23 06:32:47;;;;;;;70.18;10.88;;;;;;;;;;4999267;28;20048;-69
2023/03/23 06:35:13;;;;;;;66.85;10.57;;;;;;;;;;4999169;28;20037;-70
2023/03/23 06:37:38;;;;;;;69.57;10.27;;;;;;;;;;4981378;28;20048;-69
2023/03/23 06:40:06;;;;;;;79.82;11.27;;;;;;;;;;4997861;28;20503;-69
2023/03/23 06:42:32;;;;;;;88.50;11.05;;;;;;;;;;4998306;28;20052;-68
2023/03/23 06:44:57;;;;;;;66.88;10.68;;;;;;;;;;4998035;28;20042;-69
2023/03/23 06:47:27;;;;;;;79.03;11.63;;;;;;;;;;4998308;28;20061;-69
2023/03/23 06:49:52;;;;;;;72.88;10.57;;;;;;;;;;4996407;28;20045;-70
2023/03/23 06:52:20;;;;;;;69.95;10.38;;;;;;;;;;4996434;28;20041;-70
2023/03/23 06:54:45;;;;;;;84.93;11.38;;;;;;;;;;4996051;28;20479;-69
2023/03/23 06:57:13;;;;;;;57.47;8.60;;;;;;;;;;4982868;28;20137;-69
2023/03/23 06:59:38;;;;;;;70.97;10.48;;;;;;;;;;4995665;28;20033;-69
2023/03/23 07:02:04;;;;;;;70.38;11.70;;;;;;;;;;4978617;28;20483;-70
2023/03/23 07:04:30;;;;;;;76.20;10.82;;;;;;;;;;4995429;28;20407;-68
2023/03/23 07:06:58;;;;;;;62.03;9.98;;;;;;;;;;4995658;28;20487;-70
2023/03/23 07:09:23;;;;;;;67.40;9.85;;;;;;;;;;4993323;28;20515;-68
2023/03/23 07:11:51;;;;;;;74.70;11.18;;;;;;;;;;4995615;28;20056;-70
2023/03/23 07:14:16;;;;;;;80.43;10.40;;;;;;;;;;4976012;28;20084;-70
2023/03/23 07:16:42;;;;;;;66.85;10.07;;;;;;;;;;4994016;28;20582;-70
2023/03/23 07:19:07;;;;;;;67.35;10.48;;;;;;;;;;4958220;28;20072;-70
2023/03/23 07:21:32;;;;;;;66.85;9.75;;;;;;;;;;4978467;28;20460;-70
2023/03/23 07:23:58;;;;;;;74.78;10.10;;;;;;;;;;4989289;28;20048;-68
2023/03/23 07:26:23;;;;;;;62.83;9.88;;;;;;;;;;4985733;28;20047;-69
2023/03/23 07:28:48;;;;;;;69.28;9.10;;;;;;;;;;4996411;28;20482;-68
2023/03/23 07:31:13;;;;;;;77.78;10.45;;;;;;;;;;4990111;28;20427;-68
2023/03/23 07:33:39;;;;;;;61.03;9.07;;;;;;;;;;4994454;28;20107;-69
2023/03/23 07:36:05;;;;;;;59.42;9.15;;;;;;;;;;4997253;28;20022;-68
2023/03/23 07:38:30;;;;;;;58.03;9.18;;;;;;;;;;4997237;28;20506;-68
2023/03/23 07:40:57;;;;;;;64.75;9.65;;;;;;;;;;4996599;28;20038;-68
2023/03/23 07:43:23;;;;;;;60.47;9.65;;;;;;;;;;4996711;28;20035;-68
2023/03/23 07:45:48;;;;;;;54.85;7.85;;;;;;;;;;4996764;28;20896;-69
2023/03/23 07:48:16;;;;;;;47.40;8.35;;;;;;;;;;4994624;28;20042;-67
2023/03/23 07:50:42;;;;;;;50.20;8.57;;;;;;;;;;4996802;28;20045;-70
2023/03/23 07:53:07;;;;;;;44.50;8.02;;;;;;;;;;4996086;28;20968;-69
2023/03/23 07:55:33;;;;;;;49.95;9.13;;;;;;;;;;4997699;28;20621;-70
2023/03/23 07:57:58;;;;;;;40.85;6.18;;;;;;;;;;4963420;28;20046;-70
2023/03/23 08:00:24;;;;;;;54.03;8.18;;;;;;;;;;4997479;28;20466;-69
2023/03/23 08:02:55;;;;;;;39.13;6.85;;;;;;;;;;4983784;28;20044;-68
2023/03/23 08:05:21;;;;;;;49.05;7.68;;;;;;;;;;4996712;28;20164;-70
2023/03/23 08:07:48;;;;;;;40.70;7.32;;;;;;;;;;4995789;28;20068;-68
2023/03/23 08:10:14;;;;;;;47.25;7.43;;;;;;;;;;4981450;28;20795;-67
2023/03/23 08:12:41;;;;;;;45.75;7.97;;;;;;;;;;4997714;28;20517;-69
2023/03/23 08:15:06;;;;;;;40.00;7.00;;;;;;;;;;4996977;28;20110;-70
2023/03/23 08:17:34;;;;;;;40.00;6.88;;;;;;;;;;4996911;28;20121;-70
2023/03/23 08:19:59;;;;;;;41.40;6.88;;;;;;;;;;4995205;28;20165;-68
2023/03/23 08:22:25;;;;;;;40.72;7.65;;;;;;;;;;4997107;28;20049;-68
2023/03/23 08:24:52;;;;;;;42.42;6.20;;;;;;;;;;4996382;28;20029;-67
2023/03/23 08:27:20;;;;;;;41.92;6.90;;;;;;;;;;4994217;28;20594;-68
2023/03/23 08:29:46;;;;;;;49.42;8.20;;;;;;;;;;4977623;28;20151;-68
2023/03/23 08:32:11;;;;;;;40.95;7.57;;;;;;;;;;4996858;28;20037;-68
2023/03/23 08:34:37;;;;;;;31.27;6.43;;;;;;;;;;4982680;28;20052;-69
2023/03/23 08:37:02;;;;;;;32.78;7.13;;;;;;;;;;4993738;28;20608;-69
2023/03/23 08:39:29;;;;;;;33.05;5.93;;;;;;;;;;4984310;28;20034;-68
2023/03/23 08:41:55;;;;;;;30.27;5.78;;;;;;;;;;4976973;28;20129;-69
2023/03/23 08:44:20;;;;;;;32.92;6.15;;;;;;;;;;4997516;28;20041;-69
2023/03/23 08:46:45;;;;;;;30.15;6.20;;;;;;;;;;4993752;28;20080;-69
2023/03/23 08:49:12;;;;;;;29.33;5.35;;;;;;;;;;4983814;28;20739;-70
2023/03/23 08:51:37;;;;;;;34.70;5.78;;;;;;;;;;4994927;28;20074;-70
2023/03/23 08:54:03;;;;;;;31.35;6.22;;;;;;;;;;4993084;28;22182;-70
2023/03/23 08:56:28;;;;;;;34.20;6.05;;;;;;;;;;4981059;28;20060;-68
2023/03/23 08:58:54;;;;;;;37.50;6.28;;;;;;;;;;4995801;28;20060;-70
2023/03/23 09:01:22;;;;;;;27.25;5.10;;;;;;;;;;5007528;28;20079;-70
2023/03/23 09:03:48;;;;;;;23.95;5.03;;;;;;;;;;5008672;28;20038;-69
2023/03/23 09:06:14;;;;;;;25.92;4.85;;;;;;;;;;4992982;28;20065;-69
2023/03/23 09:08:39;;;;;;;25.58;4.93;;;;;;;;;;4992653;28;20054;-68
2023/03/23 09:11:08;;;;;;;29.00;5.82;;;;;;;;;;4994484;28;20049;-68
2023/03/23 09:13:37;;;;;;;23.42;4.82;;;;;;;;;;4994059;28;20038;-68
2023/03/23 09:16:03;;;;;;;24.95;5.10;;;;;;;;;;4994431;28;20076;-68
2023/03/23 09:18:29;;;;;;;25.00;5.05;;;;;;;;;;4995100;28;20127;-68
2023/03/23 09:20:54;;;;;;;28.77;5.10;;;;;;;;;;4994552;28;20037;-66
2023/03/23 09:23:23;;;;;;;28.65;5.20;;;;;;;;;;4997073;28;20042;-68
2023/03/23 09:25:48;;;;;;;23.70;4.72;;;;;;;;;;4997967;28;20746;-68
2023/03/23 09:28:16;;;;;;;29.65;5.20;;;;;;;;;;4997247;28;20038;-68
2023/03/23 09:30:42;;;;;;;29.58;4.97;;;;;;;;;;4997278;28;20184;-69
2023/03/23 09:33:08;;;;;;;25.98;5.13;;;;;;;;;;4996892;28;20030;-66
2023/03/23 09:35:34;;;;;;;28.42;5.22;;;;;;;;;;4988472;28;20075;-68
2023/03/23 09:38:03;;;;;;;26.25;4.82;;;;;;;;;;4989468;28;20667;-69
2023/03/23 09:40:32;;;;;;;28.05;5.35;;;;;;;;;;4995788;28;20037;-68
2023/03/23 09:42:57;;;;;;;27.85;4.57;;;;;;;;;;4994604;28;20042;-68
2023/03/23 09:45:31;;;;;;;21.77;4.43;;;;;;;;;;5013236;28;20049;-68
2023/03/23 09:48:14;;;;;;;29.80;5.13;;;;;;;;;;4987803;28;20604;-69
2023/03/23 09:50:42;;;;;;;32.38;4.60;;;;;;;;;;4982994;28;20155;-68
2023/03/23 09:53:16;;;;;;;33.55;4.63;;;;;;;;;;4996859;28;20037;-67
2023/03/23 09:55:41;;;;;;;24.83;4.53;;;;;;;;;;4995771;28;20037;-70
2023/03/23 09:58:16;;;;;;;25.85;5.20;;;;;;;;;;4996287;28;20057;-68
2023/03/23 10:01:06;;;;;;;28.45;4.63;;;;;;;;;;4997160;28;20034;-67
2023/03/23 10:03:37;;;;;;;28.98;5.40;;;;;;;;;;4993058;28;20057;-69
2023/03/23 10:06:03;;;;;;;29.23;5.65;;;;;;;;;;4996245;28;20038;-69
2023/03/23 10:08:31;;;;;;;36.42;6.47;;;;;;;;;;4996290;28;20604;-68
2023/03/23 10:11:04;;;;;;;22.42;4.13;;;;;;;;;;4994947;28;20052;-68
2023/03/23 10:13:44;;;;;;;25.27;4.68;;;;;;;;;;4996730;28;20038;-69
2023/03/23 10:16:12;;;;;;;28.58;5.05;;;;;;;;;;4989463;28;20065;-68
2023/03/23 10:19:07;;;;;;;31.50;5.38;;;;;;;;;;4995136;28;20488;-68
2023/03/23 10:21:33;;;;;;;21.75;4.80;;;;;;;;;;4983433;28;20117;-68
2023/03/23 10:23:59;;;;;;;27.70;4.93;;;;;;;;;;4966776;28;20537;-67
2023/03/23 10:26:48;;;;;;;26.50;4.78;;;;;;;;;;4999076;28;20052;-68
2023/03/23 10:29:26;;;;;;;30.95;5.20;;;;;;;;;;4997989;28;20219;-67
2023/03/23 10:31:54;;;;;;;29.85;4.70;;;;;;;;;;4965684;28;20842;-69
2023/03/23 10:34:23;;;;;;;30.38;4.82;;;;;;;;;;4997023;28;20037;-69
2023/03/23 10:36:51;;;;;;;27.88;5.25;;;;;;;;;;4997619;28;20034;-66
2023/03/23 10:39:19;;;;;;;26.52;4.97;;;;;;;;;;5013290;28;20376;-68
2023/03/23 10:41:47;;;;;;;30.60;5.30;;;;;;;;;;4973625;28;20037;-67
2023/03/23 10:44:19;;;;;;;30.90;5.63;;;;;;;;;;4969301;28;20248;-67
2023/03/23 10:46:48;;;;;;;27.00;5.50;;;;;;;;;;5011658;28;20103;-68
2023/03/23 10:49:16;;;;;;;36.78;5.38;;;;;;;;;;4997578;28;20049;-69
2023/03/23 10:51:43;;;;;;;31.58;5.38;;;;;;;;;;4980321;28;20040;-68
2023/03/23 10:54:09;;;;;;;29.23;5.57;;;;;;;;;;4973853;28;20524;-68
2023/03/23 10:56:42;;;;;;;31.23;4.88;;;;;;;;;;4999460;28;20185;-69
2023/03/23 10:59:14;;;;;;;30.42;5.32;;;;;;;;;;4998239;28;20037;-68
2023/03/23 11:01:42;;;;;;;26.80;5.30;;;;;;;;;;4984368;28;21682;-67
2023/03/23 11:04:15;;;;;;;25.58;6.07;;;;;;;;;;4972931;28;20038;-68
2023/03/23 11:06:45;;;;;;;26.38;4.72;;;;;;;;;;4997439;28;20057;-67
2023/03/23 11:09:10;;;;;;;35.03;5.70;;;;;;;;;;4994926;28;22356;-67
2023/03/23 11:11:42;;;;;;;26.83;4.50;;;;;;;;;;4996825;28;20316;-69
2023/03/23 11:14:18;;;;;;;28.55;5.22;;;;;;;;;;4993757;28;20349;-68
2023/03/23 11:16:57;;;;;;;33.78;5.75;;;;;;;;;;4994122;28;20040;-69
2023/03/23 11:19:27;;;;;;;29.77;5.40;;;;;;;;;;4997085;28;20075;-68
2023/03/23 11:21:57;;;;;;;25.52;5.22;;;;;;;;;;4994009;28;20030;-69
2023/03/23 11:24:24;;;;;;;30.08;5.22;;;;;;;;;;5011526;28;20030;-69
2023/03/23 11:26:50;;;;;;;27.23;5.32;;;;;;;;;;4996783;28;20042;-68
2023/03/23 11:29:18;;;;;;;31.73;6.03;;;;;;;;;;4987703;28;20156;-69
2023/03/23 11:31:52;;;;;;;29.75;5.05;;;;;;;;;;4962193;28;20026;-69
2023/03/23 11:34:21;;;;;;;26.85;5.10;;;;;;;;;;4997590;28;20033;-68
2023/03/23 11:36:52;;;;;;;29.30;5.40;;;;;;;;;;4995479;28;20441;-69
2023/03/23 11:39:43;;;;;;;31.90;5.32;;;;;;;;;;4995424;28;20037;-68
2023/03/23 11:42:16;;;;;;;25.83;4.78;;;;;;;;;;4984602;28;20037;-69
2023/03/23 11:44:44;;;;;;;26.52;5.18;;;;;;;;;;5009166;28;20034;-68
2023/03/23 11:47:29;;;;;;;32.58;6.10;;;;;;;;;;4989902;28;20030;-69
2023/03/23 11:49:54;;;;;;;31.35;5.72;;;;;;;;;;4995606;28;20124;-70
2023/03/23 11:52:26;;;;;;;27.05;5.03;;;;;;;;;;4997344;28;20106;-68
2023/03/23 11:54:59;;;;;;;30.77;6.32;;;;;;;;;;4980194;28;20033;-70
2023/03/23 11:57:24;;;;;;;30.88;5.50;;;;;;;;;;4985178;28;20690;-69
2023/03/23 11:59:49;;;;;;;27.88;5.47;;;;;;;;;;4996768;28;20045;-69
2023/03/23 12:02:28;;;;;;;27.00;5.47;;;;;;;;;;4996865;28;20125;-68
2023/03/23 12:04:53;;;;;;;27.92;5.70;;;;;;;;;;4995605;28;20037;-68
2023/03/23 12:07:24;;;;;;;27.00;5.45;;;;;;;;;;4995667;28;20478;-70
2023/03/23 12:09:52;;;;;;;22.77;5.20;;;;;;;;;;4996509;28;20050;-70
2023/03/23 12:12:27;;;;;;;27.58;5.18;;;;;;;;;;4995295;28;20033;-69
2023/03/23 12:15:13;;;;;;;33.25;5.50;;;;;;;;;;4996332;28;20068;-69
2023/03/23 12:17:47;;;;;;;29.95;5.13;;;;;;;;;;4988015;28;20041;-67
2023/03/23 12:20:14;;;;;;;29.75;5.15;;;;;;;;;;4967770;28;20041;-67
2023/03/23 12:22:40;;;;;;;26.67;4.90;;;;;;;;;;5011305;28;20041;-67
2023/03/23 12:25:05;;;;;;;23.25;4.47;;;;;;;;;;5011152;28;20087;-69
2023/03/23 12:28:10;;;;;;;26.17;4.82;;;;;;;;;;4998078;28;20049;-68
2023/03/23 12:30:36;;;;;;;26.58;5.68;;;;;;;;;;4913030;29;20051;-68
2023/03/23 12:33:10;;;;;;;34.03;5.70;;;;;;;;;;4914538;28;20047;-68
2023/03/23 12:35:44;;;;;;;23.67;3.95;;;;;;;;;;4957278;28;20047;-70
2023/03/23 12:38:10;;;;;;;31.10;5.72;;;;;;;;;;4995284;28;20144;-71
2023/03/23 12:40:39;;;;;;;31.85;5.43;;;;;;;;;;4982954;28;22447;-69
2023/03/23 12:43:13;;;;;;;23.67;4.85;;;;;;;;;;4994395;28;20048;-69
2023/03/23 12:45:38;;;;;;;;;;;;;;;;;;4997678;28;22216;-68
2023/03/23 12:48:08;;;;;;;26.33;5.45;;;;;;;;;;4980197;28;19964;-69
2023/03/23 12:50:34;;;;;;;28.10;4.72;;;;;;;;;;4996332;28;20323;-69
2023/03/23 12:53:04;;;;;;;26.02;4.80;;;;;;;;;;4988176;28;20499;-69
2023/03/23 12:55:52;;;;;;;30.58;4.85;;;;;;;;;;4995144;28;20033;-69
2023/03/23 12:58:24;;;;;;;29.98;5.18;;;;;;;;;;4990373;28;20048;-69
2023/03/23 13:00:53;;;;;;;20.95;4.18;;;;;;;;;;4975638;28;20041;-68
2023/03/23 13:03:42;;;;;;;26.15;4.68;;;;;;;;;;5000016;28;20140;-68
2023/03/23 13:06:25;;;;;;;26.30;5.00;;;;;;;;;;4993165;28;20034;-68
2023/03/23 13:08:56;;;;;;;29.98;4.93;;;;;;;;;;5000288;28;20037;-70
2023/03/23 13:11:32;;;;;;;24.83;4.20;;;;;;;;;;4999837;28;20080;-70
2023/03/23 13:14:03;;;;;;;26.25;4.50;;;;;;;;;;4981571;28;20041;-70
2023/03/23 13:16:55;;;;;;;20.67;4.20;;;;;;;;;;4999250;28;20045;-70
2023/03/23 13:19:26;;;;;;;30.55;4.65;;;;;;;;;;4968782;28;20041;-70
2023/03/23 13:22:06;;;;;;;24.02;4.88;;;;;;;;;;5000082;28;20041;-70
2023/03/23 13:24:35;;;;;;;30.10;4.93;;;;;;;;;;5000233;28;20453;-71
2023/03/23 13:27:01;;;;;;;29.92;4.78;;;;;;;;;;4998157;28;20059;-68
2023/03/23 13:29:27;;;;;;;26.83;4.78;;;;;;;;;;4997969;28;20045;-70
2023/03/23 13:32:05;;;;;;;27.52;5.10;;;;;;;;;;4999501;28;20036;-71
2023/03/23 13:34:33;;;;;;;29.15;4.80;;;;;;;;;;5000452;28;20080;-69
2023/03/23 13:36:58;;;;;;;34.92;5.40;;;;;;;;;;4974943;28;20109;-69
2023/03/23 13:39:28;;;;;;;27.67;5.13;;;;;;;;;;4999639;28;20037;-70
2023/03/23 13:42:01;;;;;;;24.65;5.22;;;;;;;;;;5000005;28;20040;-70
2023/03/23 13:44:38;;;;;;;27.48;4.70;;;;;;;;;;4999233;28;20040;-69
2023/03/23 13:47:06;;;;;;;28.63;5.05;;;;;;;;;;5000349;28;20148;-70
2023/03/23 13:49:32;;;;;;;32.47;5.90;;;;;;;;;;4999950;28;20805;-70
2023/03/23 13:52:01;;;;;;;28.33;5.55;;;;;;;;;;5000147;28;20034;-70
2023/03/23 13:54:45;;;;;;;27.88;5.20;;;;;;;;;;4998680;28;20041;-68
2023/03/23 13:57:25;;;;;;;31.67;5.35;;;;;;;;;;4992467;28;20033;-68
2023/03/23 13:59:56;;;;;;;33.33;5.10;;;;;;;;;;4985208;28;20037;-68
2023/03/23 14:02:30;;;;;;;29.83;5.55;;;;;;;;;;4998592;28;20048;-69
2023/03/23 14:04:56;;;;;;;29.17;4.90;;;;;;;;;;4996613;28;20038;-68
2023/03/23 14:07:24;;;;;;;28.15;5.18;;;;;;;;;;4982219;28;20092;-70
2023/03/23 14:09:52;;;;;;;30.73;6.10;;;;;;;;;;4997148;28;20060;-70
2023/03/23 14:12:19;;;;;;;30.48;5.78;;;;;;;;;;4998691;28;20029;-70
2023/03/23 14:14:46;;;;;;;28.70;5.50;;;;;;;;;;4998759;28;20058;-70
2023/03/23 14:17:16;;;;;;;32.50;5.53;;;;;;;;;;4986805;28;20578;-70
2023/03/23 14:19:44;;;;;;;33.63;5.65;;;;;;;;;;4998113;28;20065;-71
2023/03/23 14:22:39;;;;;;;36.47;6.55;;;;;;;;;;4998999;28;20041;-70
2023/03/23 14:25:15;;;;;;;30.80;6.05;;;;;;;;;;4989226;28;20042;-70
2023/03/23 14:27:42;;;;;;;29.38;6.18;;;;;;;;;;4986938;28;20549;-70
2023/03/23 14:30:12;;;;;;;29.05;4.75;;;;;;;;;;4998187;28;20049;-71
2023/03/23 14:32:38;;;;;;;33.55;5.90;;;;;;;;;;4996894;28;20044;-67
2023/03/23 14:35:14;;;;;;;34.42;5.25;;;;;;;;;;4996360;28;20033;-69
2023/03/23 14:37:40;;;;;;;26.83;5.00;;;;;;;;;;4982913;28;20033;-69